Terminal Aerodrome Forecast
Issued by NWS

Home | Current Version | Previous Version | Text Only | Print | Product List | Glossary On
Versions: 1 2 3 4 5 6 7 8 9 10 11 12
000
FTAK31 PAJN 222332
TAFAPG
TAF
PAPG 222332Z 2300/2324 07005KT P6SM VCSH SCT050
      TEMPO 2300/2303 -SHRA BKN045
     FM230300 VRB03KT P6SM SCT050
     FM230900 00000KT 6SM BR SCT005 SCT050
     FM231800 06006KT P6SM FEW250
      AMD LTD TO CLD VIS AND WIND 2306/2315=

USA.gov is the U.S. government's official web portal to all federal, state and local government web resources and services.